This is the latest recevied weather packets stored in our database for station/object KK7HEZ. If no packets are shown the sender has not sent any weather packets the latest 1 day(s).
| Time | Temp. | Humidity | Pressure | Rain* | Wind** | Luminosity | Snow |
|---|---|---|---|---|---|---|---|
| 1778016065 | 17.22° C | 75% | 1017.2 hPa | 0 mm | 0.45 m/s, 161° | 168 W/m² | - |
| 1778015752 | 16.67° C | 77% | 1017.2 hPa | 0 mm | 0 m/s | 151 W/m² | - |
| 1778015449 | 16.67° C | 78% | 1017.3 hPa | 0 mm | 0.89 m/s, 197° | 142 W/m² | - |
| 1778015146 | 16.67° C | 77% | 1017.2 hPa | 0 mm | 0.45 m/s, 184° | 161 W/m² | - |
| 1778014843 | 16.67° C | 77% | 1017.2 hPa | 0 mm | 0.89 m/s, 185° | 154 W/m² | - |
| 1778014541 | 16.67° C | 77% | 1017.2 hPa | 0 mm | 1.34 m/s, 216° | 151 W/m² | - |
| 1778014238 | 16.11° C | 79% | 1017.2 hPa | 0 mm | 0 m/s | 129 W/m² | - |
| 1778013936 | 16.11° C | 79% | 1017.3 hPa | 0 mm | 0.89 m/s, 172° | 123 W/m² | - |
| 1778013633 | 16.11° C | 80% | 1017.4 hPa | 0 mm | 0 m/s | 132 W/m² | - |
| 1778013329 | 16.11° C | 79% | 1017.4 hPa | 0 mm | 0.89 m/s, 150° | 136 W/m² | - |
| 1778013026 | 16.11° C | 79% | 1017.4 hPa | 0 mm | 1.34 m/s, 239° | 133 W/m² | - |
| 1778012722 | 15.56° C | 79% | 1017.7 hPa | 0 mm | 0 m/s | 132 W/m² | - |
| 1778012418 | 16.11° C | 79% | 1017.4 hPa | 0 mm | 0.89 m/s, 206° | 126 W/m² | - |
| 1778012116 | 15.56° C | 80% | 1017.5 hPa | 0 mm | 0 m/s | 112 W/m² | - |
| 1778011813 | 15.56° C | 81% | 1017.4 hPa | 0 mm | 0 m/s | 109 W/m² | - |
| 1778011511 | 15.56° C | 80% | 1017.5 hPa | 0 mm | 1.34 m/s, 230° | 104 W/m² | - |
| 1778011208 | 15.56° C | 81% | 1017.4 hPa | 0 mm | 0 m/s | 109 W/m² | - |
| 1778010903 | 15.56° C | 81% | 1017.2 hPa | 0 mm | 0 m/s | 98 W/m² | - |
| 1778010601 | 15° C | 82% | 1017.7 hPa | 0 mm | 0.89 m/s, 204° | 88 W/m² | - |
| 1778010299 | 15° C | 81% | 1017.5 hPa | 0 mm | 0.45 m/s, 149° | 88 W/m² | - |
| 1778010001 | 15° C | 82% | 1017.4 hPa | 0 mm | 0 m/s | 83 W/m² | - |
| 1778009696 | 15.56° C | 81% | 1017.4 hPa | 0 mm | 0.89 m/s, 177° | 85 W/m² | - |
| 1778009393 | 15.56° C | 81% | 1017.4 hPa | 0 mm | 1.34 m/s, 221° | 91 W/m² | - |
| 1778009092 | 15.56° C | 81% | 1017.5 hPa | 0 mm | 0 m/s | 87 W/m² | - |
| 1778008789 | 15.56° C | 82% | 1017.3 hPa | 0 mm | 0.45 m/s, 156° | 97 W/m² | - |
* Rain latest hour (hover to see other rain measurements)
** Current wind speed in m/s (hover to see current wind gust speed)